Time;durP1;ratioP1;P1;durP2;ratioP2;P2;SDS_P1;SDS_P2;PMS_P1;PMS_P2;Temp;Humidity;BMP_temperature;BMP_pressure;BME280_temperature;BME280_humidity;BME280_pressure;Samples;Min_cycle;Max_cycle;Signal;HPM_P1;HPM_P2
2021/07/10 00:02:00;;;;;;;11.90;10.90;;;15.10;99.90;;;;;;6178160;28;20210;-78
2021/07/10 00:05:04;;;;;;;12.43;10.70;;;15.00;99.90;;;;;;6178345;28;20082;-78
2021/07/10 00:08:06;;;;;;;13.43;10.30;;;14.90;99.90;;;;;;6177182;28;20113;-79
2021/07/10 00:11:09;;;;;;;12.30;10.88;;;14.80;99.90;;;;;;6177767;28;20095;-78
2021/07/10 00:14:11;;;;;;;15.77;11.90;;;14.80;99.90;;;;;;6170173;28;20629;-79
2021/07/10 00:17:13;;;;;;;15.35;12.40;;;14.80;99.90;;;;;;6202156;28;20054;-79
2021/07/10 00:20:16;;;;;;;14.00;11.32;;;14.70;99.90;;;;;;6201681;28;20582;-79
2021/07/10 00:23:18;;;;;;;27.77;13.30;;;14.80;99.90;;;;;;6201824;28;20074;-79
2021/07/10 00:26:21;;;;;;;12.57;11.23;;;14.70;99.90;;;;;;6201619;28;20117;-79
2021/07/10 00:29:23;;;;;;;16.25;12.10;;;14.60;99.90;;;;;;6202380;28;20119;-79
2021/07/10 00:32:25;;;;;;;11.93;10.88;;;14.60;99.90;;;;;;6201956;28;20100;-79
2021/07/10 00:35:26;;;;;;;13.52;12.30;;;14.60;99.90;;;;;;6225792;23;20038;-78
2021/07/10 00:38:28;;;;;;;10.50;9.50;;;14.50;99.90;;;;;;6205012;28;20129;-77
2021/07/10 00:41:31;;;;;;;11.00;10.00;;;14.50;99.90;;;;;;6185948;28;20105;-78
2021/07/10 00:44:33;;;;;;;13.13;10.50;;;14.40;99.90;;;;;;6184728;28;20131;-79
2021/07/10 00:47:35;;;;;;;14.40;11.25;;;14.30;99.90;;;;;;6184461;28;20125;-79
2021/07/10 00:50:37;;;;;;;13.75;11.90;;;14.20;99.90;;;;;;6185489;28;20046;-78
2021/07/10 00:53:39;;;;;;;14.75;12.20;;;14.20;99.90;;;;;;6185794;28;20489;-79
2021/07/10 00:56:45;;;;;;;18.48;12.70;;;14.20;99.90;;;;;;6185302;28;20524;-78
2021/07/10 00:59:47;;;;;;;15.70;11.82;;;14.20;99.90;;;;;;6185497;28;20106;-78
2021/07/10 01:02:50;;;;;;;14.38;11.70;;;14.20;99.90;;;;;;6185179;28;20536;-79
2021/07/10 01:05:52;;;;;;;16.38;13.13;;;14.10;99.90;;;;;;6186515;28;20050;-79
2021/07/10 01:08:54;;;;;;;12.48;11.10;;;14.10;99.90;;;;;;6185234;28;20062;-79
2021/07/10 01:11:57;;;;;;;17.08;12.57;;;14.00;99.90;;;;;;6185412;28;20057;-79
2021/07/10 01:14:59;;;;;;;17.77;12.07;;;14.00;99.90;;;;;;6185375;28;20168;-78
2021/07/10 01:18:01;;;;;;;12.15;10.90;;;14.00;99.90;;;;;;6186581;28;20133;-78
2021/07/10 01:21:04;;;;;;;10.80;9.80;;;14.00;99.90;;;;;;6235029;28;20077;-79
2021/07/10 01:24:06;;;;;;;11.65;10.52;;;13.90;99.90;;;;;;6235302;28;20066;-79
2021/07/10 01:27:08;;;;;;;14.55;11.02;;;13.90;99.90;;;;;;6235336;28;20093;-79
2021/07/10 01:30:12;;;;;;;12.10;10.85;;;13.90;99.90;;;;;;6235947;28;20559;-78
2021/07/10 01:33:15;;;;;;;12.23;11.05;;;13.90;99.90;;;;;;6231116;28;20156;-77
2021/07/10 01:36:18;;;;;;;12.15;10.98;;;13.80;99.90;;;;;;6231452;28;20048;-78
2021/07/10 01:39:20;;;;;;;12.32;11.02;;;13.90;99.90;;;;;;6231902;28;20105;-77
2021/07/10 01:42:21;;;;;;;11.18;9.50;;;13.80;99.90;;;;;;6231870;28;20117;-78
2021/07/10 01:45:24;;;;;;;11.20;10.15;;;13.70;99.90;;;;;;6231909;28;20133;-78
2021/07/10 01:48:26;;;;;;;11.57;10.55;;;13.70;99.90;;;;;;6230231;28;20069;-78
2021/07/10 01:51:29;;;;;;;12.43;10.60;;;13.70;99.90;;;;;;6231656;28;20109;-78
2021/07/10 01:54:31;;;;;;;11.02;9.82;;;13.60;99.90;;;;;;6232336;28;20119;-76
2021/07/10 01:57:32;;;;;;;12.70;10.00;;;13.50;99.90;;;;;;6229916;28;20466;-76
2021/07/10 02:00:37;;;;;;;11.25;9.73;;;13.50;99.90;;;;;;6230748;28;20096;-78
2021/07/10 02:03:38;;;;;;;11.05;9.95;;;13.40;99.90;;;;;;6229851;28;20125;-78
2021/07/10 02:06:42;;;;;;;11.50;10.30;;;13.40;99.90;;;;;;6228644;28;20056;-78
2021/07/10 02:09:45;;;;;;;10.65;9.40;;;13.40;99.90;;;;;;6230216;28;20184;-77
2021/07/10 02:12:47;;;;;;;11.13;10.00;;;13.30;99.90;;;;;;6230691;28;20185;-78
2021/07/10 02:15:49;;;;;;;13.07;11.77;;;13.30;99.90;;;;;;6229566;28;20192;-77
2021/07/10 02:18:51;;;;;;;10.68;9.65;;;13.20;99.90;;;;;;6229512;28;20073;-78
2021/07/10 02:21:54;;;;;;;14.85;9.20;;;13.20;99.90;;;;;;6229256;28;20118;-78
2021/07/10 02:24:56;;;;;;;11.60;10.40;;;13.20;99.90;;;;;;6229732;28;20053;-78
2021/07/10 02:28:00;;;;;;;14.13;9.10;;;13.20;99.90;;;;;;6230468;28;20132;-77
2021/07/10 02:31:02;;;;;;;11.13;10.23;;;13.10;99.90;;;;;;6229046;28;20114;-78
2021/07/10 02:34:04;;;;;;;10.98;9.95;;;13.10;99.90;;;;;;6230793;28;20058;-78
2021/07/10 02:37:07;;;;;;;10.70;9.60;;;13.00;99.90;;;;;;6231201;28;20204;-78
2021/07/10 02:40:11;;;;;;;13.07;10.10;;;13.00;99.90;;;;;;6231694;28;20042;-78
2021/07/10 02:43:15;;;;;;;16.35;9.65;;;13.00;99.90;;;;;;6231007;28;20065;-78
2021/07/10 02:46:17;;;;;;;12.48;8.95;;;12.90;99.90;;;;;;6230895;28;20069;-78
2021/07/10 02:49:19;;;;;;;10.88;9.80;;;12.90;99.90;;;;;;6232303;28;20046;-78
2021/07/10 02:52:22;;;;;;;11.10;9.50;;;12.90;99.90;;;;;;6231759;28;20092;-77
2021/07/10 02:55:25;;;;;;;12.02;8.50;;;12.90;99.90;;;;;;6230902;28;20113;-78
2021/07/10 02:58:27;;;;;;;9.73;8.57;;;12.90;99.90;;;;;;6230819;28;20124;-78
2021/07/10 03:01:29;;;;;;;9.55;8.65;;;12.80;99.90;;;;;;6231111;28;20140;-78
2021/07/10 03:04:30;;;;;;;11.63;8.90;;;12.80;99.90;;;;;;6230303;28;20054;-78
2021/07/10 03:07:34;;;;;;;14.32;9.85;;;12.70;99.90;;;;;;6230093;28;20052;-78
2021/07/10 03:10:35;;;;;;;21.08;9.88;;;12.70;99.90;;;;;;6230866;28;20081;-78
2021/07/10 03:13:37;;;;;;;15.13;10.23;;;12.70;99.90;;;;;;6231134;28;20189;-76
2021/07/10 03:16:39;;;;;;;11.05;9.90;;;12.70;99.90;;;;;;6230436;28;20042;-78
2021/07/10 03:19:41;;;;;;;10.13;8.65;;;12.60;99.90;;;;;;6230571;28;20507;-78
2021/07/10 03:22:44;;;;;;;10.85;9.68;;;12.60;99.90;;;;;;6230548;28;20092;-77
2021/07/10 03:25:47;;;;;;;12.68;10.60;;;12.60;99.90;;;;;;6230878;28;20538;-77
2021/07/10 03:28:49;;;;;;;11.60;10.02;;;12.60;99.90;;;;;;6230219;28;20573;-78
2021/07/10 03:31:51;;;;;;;12.73;9.10;;;12.60;99.90;;;;;;6229120;28;20089;-77
2021/07/10 03:34:53;;;;;;;10.52;9.45;;;12.60;99.90;;;;;;6228063;28;20120;-78
2021/07/10 03:37:57;;;;;;;10.27;8.65;;;12.60;99.90;;;;;;6229131;28;20137;-76
2021/07/10 03:40:59;;;;;;;11.30;10.20;;;12.60;99.90;;;;;;6229437;28;20050;-77
2021/07/10 03:44:01;;;;;;;10.65;9.75;;;12.60;99.90;;;;;;6227881;28;20482;-76
2021/07/10 03:47:03;;;;;;;11.73;8.85;;;12.60;99.90;;;;;;6226436;28;20046;-78
2021/07/10 03:50:07;;;;;;;9.82;8.35;;;12.60;99.90;;;;;;6226755;28;20046;-76
2021/07/10 03:53:10;;;;;;;9.25;7.82;;;12.60;99.90;;;;;;6227589;28;20531;-78
2021/07/10 03:56:14;;;;;;;9.20;8.38;;;12.50;99.90;;;;;;6227663;28;20506;-77
2021/07/10 03:59:16;;;;;;;11.20;7.68;;;12.60;99.90;;;;;;6228178;28;20048;-78
2021/07/10 04:02:18;;;;;;;9.10;7.72;;;12.60;99.90;;;;;;6227512;28;20119;-76
2021/07/10 04:05:20;;;;;;;9.15;7.93;;;12.60;99.90;;;;;;6227217;28;20058;-77
2021/07/10 04:08:23;;;;;;;8.73;7.93;;;12.60;99.90;;;;;;6226625;28;20041;-77
2021/07/10 04:11:25;;;;;;;11.35;8.45;;;12.60;99.90;;;;;;6226464;28;20046;-77
2021/07/10 04:14:29;;;;;;;11.45;9.23;;;12.70;99.90;;;;;;6226940;28;20125;-78
2021/07/10 04:17:32;;;;;;;10.52;7.45;;;12.70;99.90;;;;;;6227747;28;20137;-78
2021/07/10 04:20:34;;;;;;;16.02;7.93;;;12.80;99.90;;;;;;6231528;28;20049;-79
2021/07/10 04:23:38;;;;;;;12.38;8.15;;;12.80;99.90;;;;;;6233745;28;20069;-78
2021/07/10 04:26:40;;;;;;;11.00;9.40;;;13.00;99.90;;;;;;6230342;28;20088;-77
2021/07/10 04:29:44;;;;;;;13.77;7.68;;;13.00;99.90;;;;;;6233308;28;20070;-77
2021/07/10 04:32:46;;;;;;;9.27;8.40;;;13.10;99.90;;;;;;6230557;28;20056;-78
2021/07/10 04:35:48;;;;;;;9.23;8.43;;;13.20;99.90;;;;;;6231984;28;20054;-78
2021/07/10 04:38:51;;;;;;;8.63;7.85;;;13.40;99.90;;;;;;6231403;28;20135;-78
2021/07/10 04:41:53;;;;;;;9.45;8.50;;;13.50;99.90;;;;;;6233396;28;20137;-78
2021/07/10 04:44:55;;;;;;;10.70;7.57;;;13.70;99.90;;;;;;6233016;28;20046;-78
2021/07/10 04:47:57;;;;;;;8.25;7.55;;;13.80;99.90;;;;;;6233397;28;20462;-78
2021/07/10 04:50:59;;;;;;;8.57;7.45;;;14.00;99.90;;;;;;6231662;28;20563;-79
2021/07/10 04:54:02;;;;;;;9.57;7.28;;;14.20;99.90;;;;;;6233214;28;20103;-78
2021/07/10 04:57:04;;;;;;;7.10;6.50;;;14.40;99.90;;;;;;6233290;28;20046;-78
2021/07/10 05:00:08;;;;;;;11.98;7.07;;;14.50;99.90;;;;;;6233245;28;20169;-77
2021/07/10 05:03:11;;;;;;;8.07;7.35;;;14.80;99.90;;;;;;6231184;28;20181;-77
2021/07/10 05:06:13;;;;;;;10.60;6.82;;;14.90;99.90;;;;;;6231533;28;20054;-77
2021/07/10 05:09:16;;;;;;;6.53;6.03;;;15.00;99.90;;;;;;6232827;28;20046;-77
2021/07/10 05:12:20;;;;;;;11.50;6.97;;;15.20;99.90;;;;;;6231665;28;20519;-77
2021/07/10 05:15:22;;;;;;;8.13;7.43;;;15.30;99.90;;;;;;6230648;28;20052;-77
2021/07/10 05:18:24;;;;;;;13.05;7.72;;;15.50;99.90;;;;;;6228569;28;20116;-77
2021/07/10 05:21:26;;;;;;;11.52;7.45;;;15.60;99.90;;;;;;6228306;28;20136;-77
2021/07/10 05:24:29;;;;;;;10.48;8.05;;;15.80;99.90;;;;;;6228622;28;20150;-77
2021/07/10 05:27:31;;;;;;;10.30;8.73;;;16.20;99.90;;;;;;6227960;28;20084;-77
2021/07/10 05:30:33;;;;;;;8.52;7.55;;;16.60;99.90;;;;;;6227637;28;20080;-78
2021/07/10 05:33:34;;;;;;;9.95;7.47;;;16.90;99.90;;;;;;6228430;28;20181;-77
2021/07/10 05:36:36;;;;;;;7.78;6.10;;;17.20;99.90;;;;;;6227173;28;20163;-78
2021/07/10 05:39:39;;;;;;;8.60;6.85;;;17.40;99.90;;;;;;6228177;28;20061;-77
2021/07/10 05:42:41;;;;;;;10.32;6.82;;;17.50;99.90;;;;;;6228498;28;20125;-77
2021/07/10 05:45:43;;;;;;;9.82;6.78;;;17.70;99.90;;;;;;6231595;28;20197;-77
2021/07/10 05:48:45;;;;;;;12.25;7.70;;;17.80;99.90;;;;;;6225595;28;20177;-77
2021/07/10 05:51:47;;;;;;;7.85;7.00;;;18.00;99.90;;;;;;6224199;28;20507;-77
2021/07/10 05:54:50;;;;;;;8.93;8.18;;;18.30;99.90;;;;;;6227483;28;20123;-77
2021/07/10 05:57:52;;;;;;;8.43;7.55;;;18.50;99.90;;;;;;6235192;28;20053;-77
2021/07/10 06:00:54;;;;;;;13.80;8.50;;;18.70;99.90;;;;;;6252860;28;20191;-77
2021/07/10 06:03:56;;;;;;;9.60;6.85;;;19.00;99.90;;;;;;6238274;28;20523;-77
2021/07/10 06:06:58;;;;;;;8.35;7.63;;;19.80;99.90;;;;;;6207447;28;20192;-76
2021/07/10 06:10:01;;;;;;;7.28;6.65;;;20.80;99.90;;;;;;6218155;28;20129;-77
2021/07/10 06:13:03;;;;;;;10.15;7.40;;;21.50;99.90;;;;;;6223773;28;20105;-78
2021/07/10 06:16:05;;;;;;;8.23;7.53;;;22.00;98.80;;;;;;6203972;28;20081;-78
2021/07/10 06:19:07;;;;;;;7.13;6.53;;;22.50;97.00;;;;;;6204331;28;20046;-78
2021/07/10 06:22:09;;;;;;;7.05;6.35;;;23.00;95.50;;;;;;6211635;28;20084;-77
2021/07/10 06:25:14;;;;;;;9.05;7.32;;;23.30;93.50;;;;;;6228862;28;20049;-78
2021/07/10 06:28:15;;;;;;;6.13;5.32;;;23.50;92.60;;;;;;6227798;28;20412;-78
2021/07/10 06:31:17;;;;;;;5.85;5.15;;;23.70;91.70;;;;;;6227830;28;20184;-78
2021/07/10 06:34:20;;;;;;;8.68;5.93;;;24.00;90.80;;;;;;6228346;28;20100;-77
2021/07/10 06:37:22;;;;;;;5.60;5.10;;;24.00;90.40;;;;;;6224300;28;20514;-77
2021/07/10 06:40:25;;;;;;;5.30;4.90;;;24.00;89.20;;;;;;6205682;28;20491;-76
2021/07/10 06:43:27;;;;;;;5.00;4.50;;;24.20;86.70;;;;;;6198043;28;20054;-76
2021/07/10 06:46:29;;;;;;;4.47;4.07;;;24.40;86.20;;;;;;6198748;28;20570;-77
2021/07/10 06:49:31;;;;;;;7.13;4.68;;;24.60;85.70;;;;;;6198439;28;20069;-77
2021/07/10 06:52:33;;;;;;;7.80;4.80;;;24.80;84.40;;;;;;6197922;28;20463;-77
2021/07/10 06:55:36;;;;;;;5.15;4.65;;;24.90;83.20;;;;;;6197787;28;20125;-77
2021/07/10 06:58:38;;;;;;;8.43;4.97;;;24.90;82.80;;;;;;6198159;28;20172;-77
2021/07/10 07:01:40;;;;;;;4.82;4.43;;;24.60;83.50;;;;;;6198248;28;20188;-78
2021/07/10 07:04:41;;;;;;;8.65;5.45;;;24.30;83.70;;;;;;6197731;28;20131;-77
2021/07/10 07:07:44;;;;;;;5.93;5.38;;;24.20;84.10;;;;;;6197674;28;20086;-77
2021/07/10 07:10:48;;;;;;;7.57;4.38;;;24.10;84.20;;;;;;6198082;28;20128;-77
2021/07/10 07:13:49;;;;;;;5.75;4.70;;;24.00;83.90;;;;;;6209571;28;20050;-77
2021/07/10 07:16:51;;;;;;;9.93;4.85;;;24.10;83.10;;;;;;6221739;28;20075;-77
2021/07/10 07:19:53;;;;;;;7.38;5.28;;;24.20;81.50;;;;;;6222205;28;20449;-77
2021/07/10 07:22:55;;;;;;;9.60;4.88;;;24.30;81.70;;;;;;6219479;28;20157;-77
2021/07/10 07:25:58;;;;;;;6.38;4.65;;;24.40;81.60;;;;;;6223891;28;20179;-77
2021/07/10 07:29:00;;;;;;;7.05;4.97;;;24.50;80.20;;;;;;6224351;28;20523;-77
2021/07/10 07:32:01;;;;;;;7.03;4.60;;;24.70;78.70;;;;;;6223812;28;20053;-77
2021/07/10 07:35:04;;;;;;;8.05;4.93;;;24.90;77.10;;;;;;6222970;28;20125;-77
2021/07/10 07:38:06;;;;;;;10.23;4.00;;;25.10;76.30;;;;;;6223217;28;20072;-77
2021/07/10 07:41:09;;;;;;;5.88;3.92;;;25.40;75.90;;;;;;6223525;28;20192;-77
2021/07/10 07:44:11;;;;;;;4.65;3.92;;;25.50;73.90;;;;;;6222336;28;20598;-76
2021/07/10 07:47:15;;;;;;;6.43;4.47;;;24.90;74.50;;;;;;6222317;28;20096;-77
2021/07/10 07:50:19;;;;;;;5.43;4.22;;;24.70;76.30;;;;;;6222822;28;20054;-77
2021/07/10 07:53:21;;;;;;;5.78;4.57;;;24.50;76.70;;;;;;6222362;28;20132;-77
2021/07/10 07:56:25;;;;;;;4.57;4.00;;;24.40;76.70;;;;;;6224694;28;20065;-77
2021/07/10 07:59:27;;;;;;;3.92;3.53;;;24.20;75.10;;;;;;6227342;28;20054;-77
2021/07/10 08:02:29;;;;;;;7.07;4.28;;;24.10;76.70;;;;;;6227426;28;20121;-77
2021/07/10 08:05:30;;;;;;;6.00;5.47;;;24.10;76.60;;;;;;6226948;28;20128;-76
2021/07/10 08:08:36;;;;;;;4.82;4.20;;;24.20;76.30;;;;;;6226557;28;20438;-77
2021/07/10 08:11:39;;;;;;;6.03;3.78;;;24.40;74.90;;;;;;6226119;28;20073;-77
2021/07/10 08:14:41;;;;;;;5.00;4.50;;;24.50;75.50;;;;;;6207541;28;20061;-77
2021/07/10 08:17:44;;;;;;;3.78;3.40;;;24.60;75.40;;;;;;6203035;28;20137;-77
2021/07/10 08:20:46;;;;;;;4.45;4.05;;;24.60;71.80;;;;;;6203320;28;20042;-77
2021/07/10 08:23:48;;;;;;;7.03;4.40;;;24.50;72.50;;;;;;6201948;28;20050;-77
2021/07/10 08:26:51;;;;;;;5.07;3.88;;;24.30;73.00;;;;;;6202204;28;20085;-78
2021/07/10 08:29:53;;;;;;;5.93;3.97;;;24.30;73.80;;;;;;6202526;28;20141;-77
2021/07/10 08:32:55;;;;;;;12.82;4.78;;;24.40;74.00;;;;;;6201278;28;20120;-74
2021/07/10 08:35:58;;;;;;;6.07;4.25;;;24.60;74.80;;;;;;6202041;28;20154;-77
2021/07/10 08:39:00;;;;;;;4.50;3.67;;;24.80;72.90;;;;;;6201522;28;20104;-77
2021/07/10 08:42:03;;;;;;;4.38;3.30;;;24.80;71.30;;;;;;6201447;28;20054;-77
2021/07/10 08:45:08;;;;;;;4.35;3.95;;;24.90;71.00;;;;;;6201969;28;20046;-77
2021/07/10 08:48:10;;;;;;;4.00;3.30;;;24.90;71.00;;;;;;6202491;28;20054;-77
2021/07/10 08:51:13;;;;;;;5.85;4.35;;;25.10;71.10;;;;;;6202703;28;20105;-77
2021/07/10 08:54:15;;;;;;;3.67;3.38;;;25.30;71.70;;;;;;6201667;28;20492;-77
2021/07/10 08:57:19;;;;;;;3.83;3.53;;;25.60;70.00;;;;;;6201732;28;20138;-77
2021/07/10 09:00:24;;;;;;;5.07;3.55;;;25.70;69.10;;;;;;6201624;28;20515;-78
2021/07/10 09:03:26;;;;;;;3.35;3.05;;;25.90;67.30;;;;;;6203763;28;20086;-78
2021/07/10 09:06:27;;;;;;;3.67;3.38;;;26.00;67.50;;;;;;6202012;28;20038;-77
2021/07/10 09:09:42;;;;;;;5.82;3.05;;;26.20;66.00;;;;;;6204955;28;20085;-77
2021/07/10 09:12:45;;;;;;;5.00;3.13;;;26.40;65.10;;;;;;6206385;28;20052;-78
2021/07/10 09:15:47;;;;;;;3.80;3.50;;;26.40;63.40;;;;;;6227145;28;20046;-77
2021/07/10 09:18:51;;;;;;;5.05;3.20;;;26.30;63.50;;;;;;6226863;28;20052;-77
2021/07/10 09:21:53;;;;;;;4.75;3.03;;;26.20;63.40;;;;;;6226826;28;20072;-78
2021/07/10 09:24:57;;;;;;;4.45;2.90;;;26.20;63.40;;;;;;6226397;28;20121;-77
2021/07/10 09:28:04;;;;;;;8.75;2.80;;;26.20;62.30;;;;;;6225551;28;20042;-77
2021/07/10 09:31:13;;;;;;;;;;;26.10;61.90;;;;;;6225986;28;20516;-78
2021/07/10 09:34:17;;;;;;;7.15;2.75;;;26.00;62.40;;;;;;6225239;28;20015;-78
2021/07/10 09:37:20;;;;;;;6.80;3.38;;;26.10;62.50;;;;;;6225481;28;20496;-77
2021/07/10 09:40:22;;;;;;;7.95;3.25;;;26.20;59.10;;;;;;6225483;28;20065;-77
2021/07/10 09:43:27;;;;;;;5.38;2.80;;;26.20;59.30;;;;;;6224391;28;20050;-76
2021/07/10 09:46:28;;;;;;;2.63;2.42;;;26.20;59.10;;;;;;6223776;28;20125;-77
2021/07/10 09:49:31;;;;;;;4.20;2.47;;;26.20;58.10;;;;;;6225293;28;20538;-77
2021/07/10 09:52:36;;;;;;;3.00;2.70;;;26.40;57.90;;;;;;6225350;28;20133;-78
2021/07/10 09:55:38;;;;;;;5.82;3.08;;;26.60;57.00;;;;;;6223251;28;20049;-77
2021/07/10 09:58:41;;;;;;;3.88;3.58;;;26.90;57.30;;;;;;6222042;28;20126;-77
2021/07/10 10:01:43;;;;;;;5.57;4.20;;;27.10;58.20;;;;;;6226239;28;20558;-77
2021/07/10 10:04:45;;;;;;;3.28;2.53;;;27.20;57.10;;;;;;6226583;28;20069;-77
2021/07/10 10:07:49;;;;;;;2.85;2.65;;;27.30;55.80;;;;;;6225492;28;20181;-77
2021/07/10 10:10:54;;;;;;;2.78;2.30;;;27.40;55.70;;;;;;6224607;28;20137;-77
2021/07/10 10:14:08;;;;;;;4.57;3.10;;;27.40;54.80;;;;;;6224128;28;20127;-76
2021/07/10 10:17:11;;;;;;;4.07;3.65;;;27.20;55.50;;;;;;6222678;28;20484;-76
2021/07/10 10:20:14;;;;;;;2.75;2.30;;;27.40;56.70;;;;;;6224202;28;20053;-78
2021/07/10 10:23:18;;;;;;;2.00;1.88;;;27.70;54.30;;;;;;6225032;28;20095;-77
2021/07/10 10:26:20;;;;;;;3.50;2.65;;;27.80;52.80;;;;;;6223559;28;20124;-77
2021/07/10 10:29:24;;;;;;;3.00;2.08;;;27.80;52.20;;;;;;6224108;28;20056;-77
2021/07/10 10:32:26;;;;;;;2.22;2.03;;;27.60;51.50;;;;;;6222997;28;20169;-77
2021/07/10 10:35:28;;;;;;;2.55;2.30;;;27.50;50.90;;;;;;6222541;28;20125;-77
2021/07/10 10:38:30;;;;;;;3.72;2.22;;;27.70;52.80;;;;;;6223331;28;20049;-77
2021/07/10 10:41:32;;;;;;;4.97;2.70;;;27.90;51.30;;;;;;6224702;28;20129;-77
2021/07/10 10:44:38;;;;;;;2.22;1.80;;;28.00;51.30;;;;;;6223740;28;20136;-77
2021/07/10 10:47:42;;;;;;;5.10;2.70;;;28.30;50.40;;;;;;6224088;28;20060;-77
2021/07/10 10:50:43;;;;;;;3.58;2.00;;;28.70;49.80;;;;;;6223557;28;20419;-77
2021/07/10 10:53:45;;;;;;;3.03;2.47;;;28.90;48.70;;;;;;6225227;28;20049;-77
2021/07/10 10:56:47;;;;;;;2.83;2.53;;;28.80;49.30;;;;;;6219234;28;20154;-77
2021/07/10 10:59:56;;;;;;;6.53;2.47;;;28.70;50.50;;;;;;6219253;28;20046;-77
2021/07/10 11:03:01;;;;;;;;;;;29.00;49.30;;;;;;6223539;28;20066;-76
2021/07/10 11:06:03;;;;;;;2.63;2.13;;;29.40;49.60;;;;;;6224663;28;20047;-78
2021/07/10 11:09:05;;;;;;;6.25;2.97;;;29.40;49.90;;;;;;6226754;28;20077;-79
2021/07/10 11:12:07;;;;;;;3.30;2.83;;;29.50;49.90;;;;;;6223720;28;20123;-76
2021/07/10 11:15:41;;;;;;;3.95;2.72;;;29.40;49.00;;;;;;6221997;28;20065;-77
2021/07/10 11:18:49;;;;;;;2.42;1.90;;;29.20;51.20;;;;;;6222135;28;20041;-77
2021/07/10 11:21:52;;;;;;;2.15;1.73;;;29.10;49.80;;;;;;6222219;28;20081;-77
2021/07/10 11:24:54;;;;;;;4.78;2.60;;;28.90;50.10;;;;;;6221928;28;20535;-77
2021/07/10 11:28:10;;;;;;;2.38;2.17;;;28.70;50.80;;;;;;6221868;28;20185;-77
2021/07/10 11:31:17;;;;;;;3.80;2.53;;;28.70;50.90;;;;;;6226918;28;20411;-77
2021/07/10 11:34:20;;;;;;;3.47;2.78;;;28.80;51.20;;;;;;6227389;28;20049;-76
2021/07/10 11:37:24;;;;;;;3.13;2.72;;;28.80;50.10;;;;;;6227119;28;20571;-77
2021/07/10 11:40:37;;;;;;;3.17;2.88;;;28.40;52.20;;;;;;6224554;28;20111;-77
2021/07/10 11:43:41;;;;;;;3.42;2.38;;;28.20;52.80;;;;;;6226847;28;20503;-76
2021/07/10 11:47:09;;;;;;;2.40;2.20;;;28.40;53.90;;;;;;6226613;28;20045;-77
2021/07/10 11:50:14;;;;;;;5.38;3.47;;;29.30;52.80;;;;;;6226780;28;20091;-77
2021/07/10 11:53:15;;;;;;;3.55;2.25;;;29.40;50.10;;;;;;6226895;28;20057;-77
2021/07/10 11:56:18;;;;;;;3.30;2.40;;;29.50;48.60;;;;;;6226260;28;20045;-76
2021/07/10 11:59:19;;;;;;;2.30;2.10;;;29.40;49.90;;;;;;6216654;28;20507;-77
2021/07/10 12:02:26;;;;;;;3.05;2.67;;;29.20;49.50;;;;;;6226822;28;20046;-77
2021/07/10 12:05:30;;;;;;;4.20;2.20;;;29.10;49.30;;;;;;6227330;28;20123;-76
2021/07/10 12:08:32;;;;;;;2.28;2.08;;;28.90;48.80;;;;;;6226658;28;20447;-77
2021/07/10 12:11:34;;;;;;;2.33;2.13;;;28.60;51.20;;;;;;6226771;28;20038;-77
2021/07/10 12:14:36;;;;;;;2.33;2.13;;;28.50;49.60;;;;;;6226357;28;20096;-76
2021/07/10 12:17:44;;;;;;;3.42;2.55;;;28.40;51.20;;;;;;6227350;28;20095;-77
2021/07/10 12:20:48;;;;;;;3.83;2.42;;;28.40;51.10;;;;;;6225992;28;20045;-77
2021/07/10 12:23:55;;;;;;;3.05;2.35;;;28.50;50.80;;;;;;6226309;28;20511;-77
2021/07/10 12:26:57;;;;;;;4.27;2.83;;;28.70;51.10;;;;;;6225457;28;20677;-77
2021/07/10 12:29:59;;;;;;;2.83;2.38;;;29.00;50.60;;;;;;6226231;28;20311;-76
2021/07/10 12:33:02;;;;;;;3.95;2.33;;;29.40;50.20;;;;;;6226108;28;20133;-77
2021/07/10 12:36:25;;;;;;;6.30;2.50;;;29.50;47.40;;;;;;6225655;28;20414;-76
2021/07/10 12:39:28;;;;;;;3.70;2.30;;;29.50;49.50;;;;;;6225808;28;20504;-76
2021/07/10 12:42:30;;;;;;;4.38;2.22;;;29.40;49.80;;;;;;6224474;28;20038;-76
2021/07/10 12:45:32;;;;;;;2.47;2.22;;;29.60;48.30;;;;;;6225512;28;20124;-76
2021/07/10 12:48:35;;;;;;;2.65;2.28;;;29.50;49.50;;;;;;6207792;28;20618;-76
2021/07/10 12:51:37;;;;;;;7.53;3.75;;;29.60;49.60;;;;;;6200855;28;20151;-77
2021/07/10 12:54:43;;;;;;;2.65;1.98;;;29.60;49.40;;;;;;6201097;28;20046;-76
2021/07/10 12:57:53;;;;;;;4.30;2.75;;;29.30;48.50;;;;;;6200836;28;20507;-76
2021/07/10 13:00:55;;;;;;;3.05;2.28;;;29.20;49.70;;;;;;6212190;28;20124;-76
2021/07/10 13:03:58;;;;;;;2.22;2.00;;;28.90;48.40;;;;;;6224626;28;20503;-76
2021/07/10 13:07:00;;;;;;;3.53;2.20;;;28.60;49.80;;;;;;6224363;28;20049;-76
2021/07/10 13:10:02;;;;;;;1.90;1.80;;;28.40;50.20;;;;;;6225497;28;20496;-77
2021/07/10 13:13:11;;;;;;;3.15;2.30;;;28.30;49.70;;;;;;6224538;28;20119;-76
2021/07/10 13:16:15;;;;;;;3.28;2.20;;;28.40;50.90;;;;;;6224228;28;20042;-76
2021/07/10 13:19:30;;;;;;;2.00;1.88;;;28.70;48.70;;;;;;6224454;28;20049;-76
2021/07/10 13:22:43;;;;;;;3.80;1.95;;;29.00;49.70;;;;;;6224183;28;20042;-77
2021/07/10 13:25:45;;;;;;;4.38;3.10;;;29.20;48.90;;;;;;6224552;28;20045;-75
2021/07/10 13:28:48;;;;;;;2.58;2.38;;;29.30;49.40;;;;;;6223909;28;20116;-76
2021/07/10 13:31:59;;;;;;;2.28;2.08;;;29.30;49.40;;;;;;6224014;28;20634;-76
2021/07/10 13:35:07;;;;;;;4.03;2.42;;;29.20;50.00;;;;;;6223852;28;20057;-78
2021/07/10 13:38:15;;;;;;;2.60;2.40;;;29.30;47.60;;;;;;6223938;28;20132;-76
2021/07/10 13:41:24;;;;;;;4.38;2.78;;;29.30;48.70;;;;;;6224115;28;20069;-77
2021/07/10 13:44:29;;;;;;;2.72;2.45;;;29.20;49.30;;;;;;6223779;28;20081;-76
2021/07/10 13:47:31;;;;;;;;;;;29.30;49.70;;;;;;6224173;28;20053;-76
2021/07/10 13:50:34;;;;;;;;;;;29.60;50.30;;;;;;6224236;28;19921;-77
2021/07/10 13:53:35;;;;;;;;;;;29.20;49.10;;;;;;6205567;28;20012;-77
2021/07/10 13:56:37;;;;;;;;;;;28.80;50.40;;;;;;6198870;28;19926;-77
2021/07/10 13:59:39;;;;;;;;;;;28.30;49.90;;;;;;6202042;28;20003;-77
2021/07/10 14:02:42;;;;;;;;;;;27.90;50.40;;;;;;6219936;28;19929;-77
2021/07/10 14:05:45;;;;;;;;;;;27.70;51.10;;;;;;6224204;28;19927;-77
2021/07/10 14:08:47;;;;;;;;;;;27.80;51.40;;;;;;6223716;28;19959;-77
2021/07/10 14:11:48;;;;;;;;;;;28.10;52.00;;;;;;6223758;28;19921;-77
2021/07/10 14:14:50;;;;;;;;;;;28.40;51.30;;;;;;6199405;28;20016;-77
2021/07/10 14:17:52;;;;;;;;;;;28.80;51.20;;;;;;6199681;28;19961;-77
2021/07/10 14:20:55;;;;;;;;;;;29.00;49.80;;;;;;6198923;28;20346;-77
2021/07/10 14:23:57;;;;;;;2.40;2.05;;;29.00;49.30;;;;;;6198492;28;20011;-77
2021/07/10 14:26:59;;;;;;;2.78;1.70;;;28.90;48.60;;;;;;6198395;28;20046;-76
2021/07/10 14:30:01;;;;;;;3.00;1.70;;;28.70;50.00;;;;;;6198421;28;20136;-76
2021/07/10 14:33:04;;;;;;;4.10;2.00;;;28.70;49.90;;;;;;6199466;28;20086;-77
2021/07/10 14:36:07;;;;;;;2.58;2.30;;;28.70;49.20;;;;;;6198119;28;20042;-77
2021/07/10 14:39:09;;;;;;;3.00;2.65;;;28.60;49.80;;;;;;6198300;28;20050;-77
2021/07/10 14:42:11;;;;;;;4.47;2.72;;;28.60;50.50;;;;;;6198582;28;20054;-77
2021/07/10 14:45:14;;;;;;;2.60;2.10;;;28.60;49.30;;;;;;6199437;28;20128;-77
2021/07/10 14:48:16;;;;;;;2.72;2.30;;;28.50;49.00;;;;;;6201188;28;20125;-76
2021/07/10 14:51:19;;;;;;;3.28;2.38;;;28.60;49.10;;;;;;6199006;28;20129;-76
2021/07/10 14:54:20;;;;;;;;;;;29.00;48.90;;;;;;6198708;28;20528;-78
2021/07/10 14:57:22;;;;;;;;;;;29.40;49.20;;;;;;6199090;28;20016;-77
2021/07/10 15:00:25;;;;;;;;;;;29.20;48.90;;;;;;6200838;28;20378;-77
2021/07/10 15:03:26;;;;;;;;;;;28.70;47.40;;;;;;6208109;28;19921;-76
2021/07/10 15:06:30;;;;;;;;;;;28.40;48.60;;;;;;6198388;28;19921;-77
2021/07/10 15:09:32;;;;;;;;;;;28.30;49.70;;;;;;6199135;28;20392;-77
2021/07/10 15:12:34;;;;;;;;;;;28.30;49.60;;;;;;6200092;28;19928;-76
2021/07/10 15:15:36;;;;;;;;;;;28.50;48.50;;;;;;6222900;28;20004;-77
2021/07/10 15:18:37;;;;;;;;;;;28.50;48.50;;;;;;6223329;28;20037;-76
2021/07/10 15:21:40;;;;;;;;;;;28.70;49.10;;;;;;6223738;28;20020;-75
2021/07/10 15:24:42;;;;;;;;;;;29.00;47.70;;;;;;6223026;28;19932;-75
2021/07/10 15:27:44;;;;;;;;;;;29.10;48.40;;;;;;6223430;28;19983;-76
2021/07/10 15:30:45;;;;;;;;;;;29.20;48.30;;;;;;6223892;28;19956;-73
2021/07/10 15:33:47;;;;;;;;;;;29.50;48.20;;;;;;6224203;28;20036;-73
2021/07/10 15:36:50;;;;;;;;;;;29.80;48.00;;;;;;6223307;28;20000;-75
2021/07/10 15:39:51;;;;;;;;;;;29.80;47.40;;;;;;6241122;28;19983;-75
2021/07/10 15:42:53;;;;;;;;;;;29.60;47.50;;;;;;6254667;28;19944;-75
2021/07/10 15:45:55;;;;;;;;;;;29.50;47.80;;;;;;6254576;28;20105;-76
2021/07/10 15:48:57;;;;;;;;;;;29.50;48.80;;;;;;6254570;28;19940;-75
2021/07/10 15:52:00;;;;;;;;;;;29.80;48.00;;;;;;6254204;28;19937;-76
2021/07/10 15:55:01;;;;;;;;;;;29.80;47.40;;;;;;6254209;28;20094;-76
2021/07/10 16:01:35;;;;;;;;;;;29.40;47.30;;;;;;6262763;28;19929;-76
2021/07/10 16:04:37;;;;;;;;;;;29.40;48.00;;;;;;6252932;28;19945;-74